sensor_id;sensor_type;location;lat;lon;timestamp;temperature;humidity
21163;DHT22;10739;52.198;20.908;2023-02-28T00:01:27;-2.80;99.90
21163;DHT22;10739;52.198;20.908;2023-02-28T00:03:54;-2.80;99.90
21163;DHT22;10739;52.198;20.908;2023-02-28T00:06:20;-2.90;99.90
21163;DHT22;10739;52.198;20.908;2023-02-28T00:08:46;-2.90;99.90
21163;DHT22;10739;52.198;20.908;2023-02-28T00:11:14;-2.90;99.90
21163;DHT22;10739;52.198;20.908;2023-02-28T00:13:44;-2.90;99.90
21163;DHT22;10739;52.198;20.908;2023-02-28T00:16:17;-2.90;99.90
21163;DHT22;10739;52.198;20.908;2023-02-28T00:18:46;-3.00;99.90
21163;DHT22;10739;52.198;20.908;2023-02-28T00:21:14;-3.00;99.90
21163;DHT22;10739;52.198;20.908;2023-02-28T00:23:41;-3.00;99.90
21163;DHT22;10739;52.198;20.908;2023-02-28T00:26:07;-3.00;99.90
21163;DHT22;10739;52.198;20.908;2023-02-28T00:28:33;-3.00;99.90
21163;DHT22;10739;52.198;20.908;2023-02-28T00:31:00;-3.10;99.90
21163;DHT22;10739;52.198;20.908;2023-02-28T00:33:27;-3.00;99.90
21163;DHT22;10739;52.198;20.908;2023-02-28T00:36:02;-3.10;99.90
21163;DHT22;10739;52.198;20.908;2023-02-28T00:38:30;-3.10;99.90
21163;DHT22;10739;52.198;20.908;2023-02-28T00:40:57;-3.10;99.90
21163;DHT22;10739;52.198;20.908;2023-02-28T00:43:24;-3.10;99.90
21163;DHT22;10739;52.198;20.908;2023-02-28T00:45:50;-3.10;99.90
21163;DHT22;10739;52.198;20.908;2023-02-28T00:48:16;-3.10;99.90
21163;DHT22;10739;52.198;20.908;2023-02-28T00:50:43;-3.10;99.90
21163;DHT22;10739;52.198;20.908;2023-02-28T00:53:09;-3.20;99.90
21163;DHT22;10739;52.198;20.908;2023-02-28T00:55:35;-3.10;99.90
21163;DHT22;10739;52.198;20.908;2023-02-28T00:58:02;-3.10;99.90
21163;DHT22;10739;52.198;20.908;2023-02-28T01:00:29;-3.20;99.90
21163;DHT22;10739;52.198;20.908;2023-02-28T01:02:55;-3.20;99.90
21163;DHT22;10739;52.198;20.908;2023-02-28T01:05:21;-3.20;99.90
21163;DHT22;10739;52.198;20.908;2023-02-28T01:07:48;-3.20;99.90
21163;DHT22;10739;52.198;20.908;2023-02-28T01:10:14;-3.00;99.90
21163;DHT22;10739;52.198;20.908;2023-02-28T01:12:41;-3.20;99.90
21163;DHT22;10739;52.198;20.908;2023-02-28T01:15:10;-3.30;99.90
21163;DHT22;10739;52.198;20.908;2023-02-28T01:17:37;-3.20;99.90
21163;DHT22;10739;52.198;20.908;2023-02-28T01:20:04;-3.30;99.90
21163;DHT22;10739;52.198;20.908;2023-02-28T01:22:32;-3.30;99.90
21163;DHT22;10739;52.198;20.908;2023-02-28T01:25:00;-3.40;99.90
21163;DHT22;10739;52.198;20.908;2023-02-28T01:27:27;-3.40;99.90
21163;DHT22;10739;52.198;20.908;2023-02-28T01:29:54;-3.40;99.90
21163;DHT22;10739;52.198;20.908;2023-02-28T01:32:20;-3.40;99.90
21163;DHT22;10739;52.198;20.908;2023-02-28T01:34:47;-3.40;99.90
21163;DHT22;10739;52.198;20.908;2023-02-28T01:37:13;-3.40;99.90
21163;DHT22;10739;52.198;20.908;2023-02-28T01:39:39;-3.50;99.90
21163;DHT22;10739;52.198;20.908;2023-02-28T01:42:07;-3.50;99.90
21163;DHT22;10739;52.198;20.908;2023-02-28T01:45:02;-3.50;99.90
21163;DHT22;10739;52.198;20.908;2023-02-28T01:47:35;-3.50;99.90
21163;DHT22;10739;52.198;20.908;2023-02-28T01:50:09;-3.50;99.90
21163;DHT22;10739;52.198;20.908;2023-02-28T01:52:48;-3.50;99.90
21163;DHT22;10739;52.198;20.908;2023-02-28T01:55:18;-3.60;99.90
21163;DHT22;10739;52.198;20.908;2023-02-28T01:57:51;-3.60;99.90
21163;DHT22;10739;52.198;20.908;2023-02-28T02:00:22;-3.60;99.90
21163;DHT22;10739;52.198;20.908;2023-02-28T02:02:58;-3.60;99.90
21163;DHT22;10739;52.198;20.908;2023-02-28T02:05:29;-3.60;99.90
21163;DHT22;10739;52.198;20.908;2023-02-28T02:08:09;-3.60;99.90
21163;DHT22;10739;52.198;20.908;2023-02-28T02:10:53;-3.60;99.90
21163;DHT22;10739;52.198;20.908;2023-02-28T02:21:53;-3.60;99.90
21163;DHT22;10739;52.198;20.908;2023-02-28T02:24:54;-3.70;99.90
21163;DHT22;10739;52.198;20.908;2023-02-28T02:27:46;-3.70;99.90
21163;DHT22;10739;52.198;20.908;2023-02-28T02:36:26;-3.70;99.90
21163;DHT22;10739;52.198;20.908;2023-02-28T02:39:36;-3.70;99.90
21163;DHT22;10739;52.198;20.908;2023-02-28T02:45:27;-3.70;99.90
21163;DHT22;10739;52.198;20.908;2023-02-28T02:48:18;-3.70;99.90
21163;DHT22;10739;52.198;20.908;2023-02-28T02:50:51;-3.80;99.90
21163;DHT22;10739;52.198;20.908;2023-02-28T02:53:33;-3.80;99.90
21163;DHT22;10739;52.198;20.908;2023-02-28T02:56:03;-3.80;99.90
21163;DHT22;10739;52.198;20.908;2023-02-28T02:58:36;-3.70;99.90
21163;DHT22;10739;52.198;20.908;2023-02-28T03:01:14;-3.80;99.90
21163;DHT22;10739;52.198;20.908;2023-02-28T03:04:13;-3.70;99.90
21163;DHT22;10739;52.198;20.908;2023-02-28T03:06:43;-3.80;99.90
21163;DHT22;10739;52.198;20.908;2023-02-28T03:09:09;-3.90;99.90
21163;DHT22;10739;52.198;20.908;2023-02-28T03:11:37;-3.80;99.90
21163;DHT22;10739;52.198;20.908;2023-02-28T03:25:56;-3.80;99.90
21163;DHT22;10739;52.198;20.908;2023-02-28T03:31:34;-3.80;99.90
21163;DHT22;10739;52.198;20.908;2023-02-28T03:34:29;-3.90;99.90
21163;DHT22;10739;52.198;20.908;2023-02-28T03:37:07;-3.90;99.90
21163;DHT22;10739;52.198;20.908;2023-02-28T03:39:50;-3.90;99.90
21163;DHT22;10739;52.198;20.908;2023-02-28T03:42:25;-3.90;99.90
21163;DHT22;10739;52.198;20.908;2023-02-28T03:45:00;-3.90;99.90
21163;DHT22;10739;52.198;20.908;2023-02-28T03:47:44;-3.90;99.90
21163;DHT22;10739;52.198;20.908;2023-02-28T03:50:23;-4.00;99.90
21163;DHT22;10739;52.198;20.908;2023-02-28T03:53:19;-4.00;99.90
21163;DHT22;10739;52.198;20.908;2023-02-28T03:56:07;-3.90;99.90
21163;DHT22;10739;52.198;20.908;2023-02-28T04:01:41;-4.00;99.90
21163;DHT22;10739;52.198;20.908;2023-02-28T04:04:11;-4.00;99.90
21163;DHT22;10739;52.198;20.908;2023-02-28T04:06:40;-3.90;99.90
21163;DHT22;10739;52.198;20.908;2023-02-28T04:09:11;-3.90;99.90
21163;DHT22;10739;52.198;20.908;2023-02-28T04:11:52;-4.00;99.90
21163;DHT22;10739;52.198;20.908;2023-02-28T04:14:18;-4.00;99.90
21163;DHT22;10739;52.198;20.908;2023-02-28T04:16:45;-4.00;99.90
21163;DHT22;10739;52.198;20.908;2023-02-28T04:19:13;-4.00;99.90
21163;DHT22;10739;52.198;20.908;2023-02-28T04:24:14;-4.00;99.90
21163;DHT22;10739;52.198;20.908;2023-02-28T04:26:47;-4.00;99.90
21163;DHT22;10739;52.198;20.908;2023-02-28T04:29:27;-4.00;99.90
21163;DHT22;10739;52.198;20.908;2023-02-28T04:31:55;-4.00;99.90
21163;DHT22;10739;52.198;20.908;2023-02-28T04:34:30;-4.00;99.90
21163;DHT22;10739;52.198;20.908;2023-02-28T04:36:58;-4.00;99.90
21163;DHT22;10739;52.198;20.908;2023-02-28T04:39:26;-4.00;99.90
21163;DHT22;10739;52.198;20.908;2023-02-28T04:41:52;-4.00;99.90
21163;DHT22;10739;52.198;20.908;2023-02-28T04:44:18;-4.00;99.90
21163;DHT22;10739;52.198;20.908;2023-02-28T04:46:48;-4.00;99.90
21163;DHT22;10739;52.198;20.908;2023-02-28T04:49:15;-4.10;99.90
21163;DHT22;10739;52.198;20.908;2023-02-28T04:51:42;-4.10;99.90
21163;DHT22;10739;52.198;20.908;2023-02-28T04:54:08;-4.10;99.90
21163;DHT22;10739;52.198;20.908;2023-02-28T04:56:35;-4.10;99.90
21163;DHT22;10739;52.198;20.908;2023-02-28T04:59:02;-4.10;99.90
21163;DHT22;10739;52.198;20.908;2023-02-28T05:01:30;-4.10;99.90
21163;DHT22;10739;52.198;20.908;2023-02-28T05:04:00;-4.10;99.90
21163;DHT22;10739;52.198;20.908;2023-02-28T05:06:30;-4.20;99.90
21163;DHT22;10739;52.198;20.908;2023-02-28T05:08:58;-4.10;99.90
21163;DHT22;10739;52.198;20.908;2023-02-28T05:11:29;-4.10;99.90
21163;DHT22;10739;52.198;20.908;2023-02-28T05:14:06;-4.20;99.90
21163;DHT22;10739;52.198;20.908;2023-02-28T05:16:35;-4.10;99.90
21163;DHT22;10739;52.198;20.908;2023-02-28T05:19:02;-4.20;99.90
21163;DHT22;10739;52.198;20.908;2023-02-28T05:21:49;-4.20;99.90
21163;DHT22;10739;52.198;20.908;2023-02-28T05:24:17;-4.20;99.90
21163;DHT22;10739;52.198;20.908;2023-02-28T05:26:49;-4.20;99.90
21163;DHT22;10739;52.198;20.908;2023-02-28T05:29:18;-4.20;99.90
21163;DHT22;10739;52.198;20.908;2023-02-28T05:31:44;-4.10;99.90
21163;DHT22;10739;52.198;20.908;2023-02-28T05:34:11;-4.10;99.90
21163;DHT22;10739;52.198;20.908;2023-02-28T05:36:38;-4.10;99.90
21163;DHT22;10739;52.198;20.908;2023-02-28T05:39:08;-4.10;99.90
21163;DHT22;10739;52.198;20.908;2023-02-28T05:41:39;-4.10;99.90
21163;DHT22;10739;52.198;20.908;2023-02-28T05:44:07;-4.10;99.90
21163;DHT22;10739;52.198;20.908;2023-02-28T05:46:33;-4.00;99.90
21163;DHT22;10739;52.198;20.908;2023-02-28T05:48:59;-4.10;99.90
21163;DHT22;10739;52.198;20.908;2023-02-28T05:51:26;-4.00;99.90
21163;DHT22;10739;52.198;20.908;2023-02-28T05:53:53;-4.00;99.90
21163;DHT22;10739;52.198;20.908;2023-02-28T05:56:20;-4.00;99.90
21163;DHT22;10739;52.198;20.908;2023-02-28T05:58:46;-4.00;99.90
21163;DHT22;10739;52.198;20.908;2023-02-28T06:01:22;-3.90;99.90
21163;DHT22;10739;52.198;20.908;2023-02-28T06:03:51;-3.90;99.90
21163;DHT22;10739;52.198;20.908;2023-02-28T06:06:18;-3.90;99.90
21163;DHT22;10739;52.198;20.908;2023-02-28T06:08:44;-3.80;99.90
21163;DHT22;10739;52.198;20.908;2023-02-28T06:11:11;-3.80;99.90
21163;DHT22;10739;52.198;20.908;2023-02-28T06:13:38;-3.70;99.90
21163;DHT22;10739;52.198;20.908;2023-02-28T06:16:05;-3.70;99.90
21163;DHT22;10739;52.198;20.908;2023-02-28T06:18:31;-3.60;99.90
21163;DHT22;10739;52.198;20.908;2023-02-28T06:20:57;-3.60;99.90
21163;DHT22;10739;52.198;20.908;2023-02-28T06:23:24;-3.50;99.90
21163;DHT22;10739;52.198;20.908;2023-02-28T06:25:50;-3.50;99.90
21163;DHT22;10739;52.198;20.908;2023-02-28T06:28:19;-3.40;99.90
21163;DHT22;10739;52.198;20.908;2023-02-28T06:30:45;-3.40;99.90
21163;DHT22;10739;52.198;20.908;2023-02-28T06:33:11;-3.30;99.90
21163;DHT22;10739;52.198;20.908;2023-02-28T06:35:38;-3.20;99.90
21163;DHT22;10739;52.198;20.908;2023-02-28T06:38:04;-3.10;99.90
21163;DHT22;10739;52.198;20.908;2023-02-28T06:40:30;-3.10;99.90
21163;DHT22;10739;52.198;20.908;2023-02-28T06:43:00;-3.00;99.90
21163;DHT22;10739;52.198;20.908;2023-02-28T06:45:26;-2.90;99.90
21163;DHT22;10739;52.198;20.908;2023-02-28T06:47:52;-2.80;99.90
21163;DHT22;10739;52.198;20.908;2023-02-28T06:50:19;-2.60;99.90
21163;DHT22;10739;52.198;20.908;2023-02-28T06:52:46;-2.50;99.90
21163;DHT22;10739;52.198;20.908;2023-02-28T06:55:13;-2.40;99.90
21163;DHT22;10739;52.198;20.908;2023-02-28T06:57:39;-2.30;99.90
21163;DHT22;10739;52.198;20.908;2023-02-28T07:00:09;-2.20;99.90
21163;DHT22;10739;52.198;20.908;2023-02-28T07:02:37;-2.10;99.90
21163;DHT22;10739;52.198;20.908;2023-02-28T07:05:06;-2.00;99.90
21163;DHT22;10739;52.198;20.908;2023-02-28T07:07:33;-1.90;99.90
21163;DHT22;10739;52.198;20.908;2023-02-28T07:10:02;-1.90;99.90
21163;DHT22;10739;52.198;20.908;2023-02-28T07:12:28;-1.70;99.90
21163;DHT22;10739;52.198;20.908;2023-02-28T07:14:54;-1.70;99.90
21163;DHT22;10739;52.198;20.908;2023-02-28T07:17:21;-1.60;99.90
21163;DHT22;10739;52.198;20.908;2023-02-28T07:19:47;-1.50;99.90
21163;DHT22;10739;52.198;20.908;2023-02-28T07:22:14;-1.40;99.90
21163;DHT22;10739;52.198;20.908;2023-02-28T07:24:40;-1.40;99.90
21163;DHT22;10739;52.198;20.908;2023-02-28T07:27:07;-1.30;99.90
21163;DHT22;10739;52.198;20.908;2023-02-28T07:29:33;-1.20;99.90
21163;DHT22;10739;52.198;20.908;2023-02-28T07:31:59;-1.20;99.90
21163;DHT22;10739;52.198;20.908;2023-02-28T07:34:26;-1.10;99.90
21163;DHT22;10739;52.198;20.908;2023-02-28T07:36:53;-1.00;99.10
21163;DHT22;10739;52.198;20.908;2023-02-28T07:39:21;-1.00;99.70
21163;DHT22;10739;52.198;20.908;2023-02-28T07:41:48;-0.90;98.00
21163;DHT22;10739;52.198;20.908;2023-02-28T07:44:14;-0.80;94.80
21163;DHT22;10739;52.198;20.908;2023-02-28T07:46:41;-0.40;92.00
21163;DHT22;10739;52.198;20.908;2023-02-28T07:49:07;0.30;86.50
21163;DHT22;10739;52.198;20.908;2023-02-28T07:51:33;0.70;80.60
21163;DHT22;10739;52.198;20.908;2023-02-28T07:54:00;1.00;79.20
21163;DHT22;10739;52.198;20.908;2023-02-28T07:56:26;1.60;75.50
21163;DHT22;10739;52.198;20.908;2023-02-28T07:58:52;1.80;74.30
21163;DHT22;10739;52.198;20.908;2023-02-28T08:01:19;1.90;71.30
21163;DHT22;10739;52.198;20.908;2023-02-28T08:03:45;2.20;71.20
21163;DHT22;10739;52.198;20.908;2023-02-28T08:06:18;2.20;67.30
21163;DHT22;10739;52.198;20.908;2023-02-28T08:08:46;2.60;67.10
21163;DHT22;10739;52.198;20.908;2023-02-28T08:11:13;2.80;65.70
21163;DHT22;10739;52.198;20.908;2023-02-28T08:13:40;3.40;64.60
21163;DHT22;10739;52.198;20.908;2023-02-28T08:16:10;3.60;65.90
21163;DHT22;10739;52.198;20.908;2023-02-28T08:18:37;3.50;64.00
21163;DHT22;10739;52.198;20.908;2023-02-28T08:21:10;3.70;62.80
21163;DHT22;10739;52.198;20.908;2023-02-28T08:23:37;4.00;61.80
21163;DHT22;10739;52.198;20.908;2023-02-28T08:26:04;4.30;61.00
21163;DHT22;10739;52.198;20.908;2023-02-28T08:28:30;5.10;59.90
21163;DHT22;10739;52.198;20.908;2023-02-28T08:30:58;6.00;57.00
21163;DHT22;10739;52.198;20.908;2023-02-28T08:33:25;6.40;55.40
21163;DHT22;10739;52.198;20.908;2023-02-28T08:35:54;6.10;54.10
21163;DHT22;10739;52.198;20.908;2023-02-28T08:38:22;6.20;54.40
21163;DHT22;10739;52.198;20.908;2023-02-28T08:40:49;6.70;53.20
21163;DHT22;10739;52.198;20.908;2023-02-28T08:43:16;7.00;52.40
21163;DHT22;10739;52.198;20.908;2023-02-28T08:45:42;7.10;52.30
21163;DHT22;10739;52.198;20.908;2023-02-28T08:48:09;7.30;51.90
21163;DHT22;10739;52.198;20.908;2023-02-28T08:50:35;6.90;51.90
21163;DHT22;10739;52.198;20.908;2023-02-28T08:53:02;7.10;52.50
21163;DHT22;10739;52.198;20.908;2023-02-28T08:55:28;7.80;51.50
21163;DHT22;10739;52.198;20.908;2023-02-28T08:57:55;7.60;50.60
21163;DHT22;10739;52.198;20.908;2023-02-28T09:00:21;7.20;52.00
21163;DHT22;10739;52.198;20.908;2023-02-28T09:02:48;6.60;52.90
21163;DHT22;10739;52.198;20.908;2023-02-28T09:05:14;6.40;53.30
21163;DHT22;10739;52.198;20.908;2023-02-28T09:07:41;7.30;51.80
21163;DHT22;10739;52.198;20.908;2023-02-28T09:10:08;7.20;52.10
21163;DHT22;10739;52.198;20.908;2023-02-28T09:12:35;7.60;51.40
21163;DHT22;10739;52.198;20.908;2023-02-28T09:15:02;8.10;50.10
21163;DHT22;10739;52.198;20.908;2023-02-28T09:17:30;8.60;49.70
21163;DHT22;10739;52.198;20.908;2023-02-28T09:19:57;9.00;47.70
21163;DHT22;10739;52.198;20.908;2023-02-28T09:22:24;9.20;49.50
21163;DHT22;10739;52.198;20.908;2023-02-28T09:24:51;9.00;48.40
21163;DHT22;10739;52.198;20.908;2023-02-28T09:27:17;9.50;47.30
21163;DHT22;10739;52.198;20.908;2023-02-28T09:29:43;8.50;47.50
21163;DHT22;10739;52.198;20.908;2023-02-28T09:32:10;8.50;48.30
21163;DHT22;10739;52.198;20.908;2023-02-28T09:34:37;8.70;48.10
21163;DHT22;10739;52.198;20.908;2023-02-28T09:37:04;9.00;47.70
21163;DHT22;10739;52.198;20.908;2023-02-28T09:39:30;9.70;47.10
21163;DHT22;10739;52.198;20.908;2023-02-28T09:41:57;10.10;45.80
21163;DHT22;10739;52.198;20.908;2023-02-28T09:44:35;10.20;44.90
21163;DHT22;10739;52.198;20.908;2023-02-28T09:50:47;8.40;46.40
21163;DHT22;10739;52.198;20.908;2023-02-28T09:52:59;6.60;50.50
21163;DHT22;10739;52.198;20.908;2023-02-28T09:55:33;5.70;52.60
21163;DHT22;10739;52.198;20.908;2023-02-28T09:58:05;4.90;55.00
21163;DHT22;10739;52.198;20.908;2023-02-28T10:00:42;4.20;56.90
21163;DHT22;10739;52.198;20.908;2023-02-28T10:09:03;3.10;61.50
21163;DHT22;10739;52.198;20.908;2023-02-28T10:11:36;3.10;64.30
21163;DHT22;10739;52.198;20.908;2023-02-28T10:14:21;2.80;63.00
21163;DHT22;10739;52.198;20.908;2023-02-28T10:17:03;2.70;64.50
21163;DHT22;10739;52.198;20.908;2023-02-28T10:19:56;2.70;65.60
21163;DHT22;10739;52.198;20.908;2023-02-28T10:22:42;2.80;67.60
21163;DHT22;10739;52.198;20.908;2023-02-28T10:25:28;2.70;66.70
21163;DHT22;10739;52.198;20.908;2023-02-28T10:28:07;2.40;66.50
21163;DHT22;10739;52.198;20.908;2023-02-28T10:30:39;2.20;67.50
21163;DHT22;10739;52.198;20.908;2023-02-28T10:33:29;2.00;68.20
21163;DHT22;10739;52.198;20.908;2023-02-28T10:35:58;1.90;69.00
21163;DHT22;10739;52.198;20.908;2023-02-28T10:38:28;1.90;69.00
21163;DHT22;10739;52.198;20.908;2023-02-28T10:41:12;1.90;69.10
21163;DHT22;10739;52.198;20.908;2023-02-28T10:43:53;1.80;68.50
21163;DHT22;10739;52.198;20.908;2023-02-28T10:46:45;1.80;70.60
21163;DHT22;10739;52.198;20.908;2023-02-28T10:49:25;1.70;72.30
21163;DHT22;10739;52.198;20.908;2023-02-28T10:51:59;1.80;73.50
21163;DHT22;10739;52.198;20.908;2023-02-28T10:57:15;1.60;72.80
21163;DHT22;10739;52.198;20.908;2023-02-28T10:59:45;1.60;73.20
21163;DHT22;10739;52.198;20.908;2023-02-28T11:02:36;1.60;70.70
21163;DHT22;10739;52.198;20.908;2023-02-28T11:08:16;1.50;73.70
21163;DHT22;10739;52.198;20.908;2023-02-28T11:10:57;1.60;72.60
21163;DHT22;10739;52.198;20.908;2023-02-28T11:13:31;1.80;72.00
21163;DHT22;10739;52.198;20.908;2023-02-28T11:16:04;1.80;72.00
21163;DHT22;10739;52.198;20.908;2023-02-28T11:18:54;1.80;72.60
21163;DHT22;10739;52.198;20.908;2023-02-28T11:21:25;1.80;69.40
21163;DHT22;10739;52.198;20.908;2023-02-28T11:24:12;1.70;70.20
21163;DHT22;10739;52.198;20.908;2023-02-28T11:27:00;1.70;69.80
21163;DHT22;10739;52.198;20.908;2023-02-28T11:29:32;1.80;71.10
21163;DHT22;10739;52.198;20.908;2023-02-28T11:32:02;1.70;69.80
21163;DHT22;10739;52.198;20.908;2023-02-28T11:34:29;1.70;70.10
21163;DHT22;10739;52.198;20.908;2023-02-28T11:36:58;1.80;70.60
21163;DHT22;10739;52.198;20.908;2023-02-28T11:39:26;1.80;72.20
21163;DHT22;10739;52.198;20.908;2023-02-28T11:54:35;1.80;69.10
21163;DHT22;10739;52.198;20.908;2023-02-28T12:03:31;1.80;70.10
21163;DHT22;10739;52.198;20.908;2023-02-28T12:11:59;2.10;68.70
21163;DHT22;10739;52.198;20.908;2023-02-28T12:15:27;2.10;70.50
21163;DHT22;10739;52.198;20.908;2023-02-28T12:26:55;1.80;70.00
21163;DHT22;10739;52.198;20.908;2023-02-28T12:29:32;1.90;72.30
21163;DHT22;10739;52.198;20.908;2023-02-28T12:34:56;2.10;70.30
21163;DHT22;10739;52.198;20.908;2023-02-28T12:37:37;2.10;69.20
21163;DHT22;10739;52.198;20.908;2023-02-28T12:40:32;2.20;71.30
21163;DHT22;10739;52.198;20.908;2023-02-28T12:43:09;2.20;71.30
21163;DHT22;10739;52.198;20.908;2023-02-28T12:46:00;2.30;69.90
21163;DHT22;10739;52.198;20.908;2023-02-28T12:48:42;2.40;70.00
21163;DHT22;10739;52.198;20.908;2023-02-28T12:51:13;2.30;69.10
21163;DHT22;10739;52.198;20.908;2023-02-28T12:54:55;2.40;70.60
21163;DHT22;10739;52.198;20.908;2023-02-28T12:57:33;2.20;72.50
21163;DHT22;10739;52.198;20.908;2023-02-28T13:00:24;2.20;71.50
21163;DHT22;10739;52.198;20.908;2023-02-28T13:11:25;2.40;71.20
21163;DHT22;10739;52.198;20.908;2023-02-28T13:22:37;2.40;74.70
21163;DHT22;10739;52.198;20.908;2023-02-28T13:27:55;2.60;73.20
21163;DHT22;10739;52.198;20.908;2023-02-28T13:46:29;2.90;73.40
21163;DHT22;10739;52.198;20.908;2023-02-28T13:48:56;2.90;73.30
21163;DHT22;10739;52.198;20.908;2023-02-28T13:51:44;2.90;72.30
21163;DHT22;10739;52.198;20.908;2023-02-28T13:57:09;2.90;72.60
21163;DHT22;10739;52.198;20.908;2023-02-28T14:00:02;2.90;71.70
21163;DHT22;10739;52.198;20.908;2023-02-28T14:03:11;2.90;72.10
21163;DHT22;10739;52.198;20.908;2023-02-28T14:06:15;2.90;72.10
21163;DHT22;10739;52.198;20.908;2023-02-28T14:09:05;2.60;73.60
21163;DHT22;10739;52.198;20.908;2023-02-28T14:11:44;3.10;73.80
21163;DHT22;10739;52.198;20.908;2023-02-28T14:17:07;3.00;72.30
21163;DHT22;10739;52.198;20.908;2023-02-28T14:19:39;2.90;72.20
21163;DHT22;10739;52.198;20.908;2023-02-28T14:38:06;2.60;75.10
21163;DHT22;10739;52.198;20.908;2023-02-28T14:40:42;2.60;74.60
21163;DHT22;10739;52.198;20.908;2023-02-28T14:43:23;2.60;74.50
21163;DHT22;10739;52.198;20.908;2023-02-28T14:45:59;2.60;76.20
21163;DHT22;10739;52.198;20.908;2023-02-28T14:48:28;2.50;75.40
21163;DHT22;10739;52.198;20.908;2023-02-28T14:50:57;2.60;75.70
21163;DHT22;10739;52.198;20.908;2023-02-28T14:53:28;2.50;76.30
21163;DHT22;10739;52.198;20.908;2023-02-28T14:55:56;2.50;76.80
21163;DHT22;10739;52.198;20.908;2023-02-28T14:58:31;2.50;76.30
21163;DHT22;10739;52.198;20.908;2023-02-28T15:01:01;2.50;76.50
21163;DHT22;10739;52.198;20.908;2023-02-28T15:03:39;2.40;75.60
21163;DHT22;10739;52.198;20.908;2023-02-28T15:06:17;2.30;76.80
21163;DHT22;10739;52.198;20.908;2023-02-28T15:08:44;2.20;79.10
21163;DHT22;10739;52.198;20.908;2023-02-28T15:11:17;2.20;77.20
21163;DHT22;10739;52.198;20.908;2023-02-28T15:13:55;2.20;78.00
21163;DHT22;10739;52.198;20.908;2023-02-28T15:19:28;2.20;79.50
21163;DHT22;10739;52.198;20.908;2023-02-28T15:22:02;2.20;79.10
21163;DHT22;10739;52.198;20.908;2023-02-28T15:24:42;2.20;78.60
21163;DHT22;10739;52.198;20.908;2023-02-28T15:27:25;2.20;81.20
21163;DHT22;10739;52.198;20.908;2023-02-28T15:29:57;2.20;79.20
21163;DHT22;10739;52.198;20.908;2023-02-28T15:32:32;2.10;79.70
21163;DHT22;10739;52.198;20.908;2023-02-28T15:40:57;2.00;81.50
21163;DHT22;10739;52.198;20.908;2023-02-28T15:46:06;2.00;83.20
21163;DHT22;10739;52.198;20.908;2023-02-28T15:48:42;1.90;84.50
21163;DHT22;10739;52.198;20.908;2023-02-28T15:51:21;1.90;86.40
21163;DHT22;10739;52.198;20.908;2023-02-28T15:53:59;1.80;86.90
21163;DHT22;10739;52.198;20.908;2023-02-28T15:56:31;1.80;88.70
21163;DHT22;10739;52.198;20.908;2023-02-28T15:59:05;1.70;90.10
21163;DHT22;10739;52.198;20.908;2023-02-28T16:01:35;1.70;89.40
21163;DHT22;10739;52.198;20.908;2023-02-28T16:04:14;1.70;91.60
21163;DHT22;10739;52.198;20.908;2023-02-28T16:06:44;1.60;91.50
21163;DHT22;10739;52.198;20.908;2023-02-28T16:09:15;1.60;92.00
21163;DHT22;10739;52.198;20.908;2023-02-28T16:11:48;1.50;92.20
21163;DHT22;10739;52.198;20.908;2023-02-28T16:14:27;1.50;92.90
21163;DHT22;10739;52.198;20.908;2023-02-28T16:17:07;1.40;92.90
21163;DHT22;10739;52.198;20.908;2023-02-28T16:19:43;1.40;93.30
21163;DHT22;10739;52.198;20.908;2023-02-28T16:22:09;1.30;94.50
21163;DHT22;10739;52.198;20.908;2023-02-28T16:24:36;1.30;94.30
21163;DHT22;10739;52.198;20.908;2023-02-28T16:27:04;1.30;94.10
21163;DHT22;10739;52.198;20.908;2023-02-28T16:29:34;1.30;94.40
21163;DHT22;10739;52.198;20.908;2023-02-28T16:32:04;1.20;96.20
21163;DHT22;10739;52.198;20.908;2023-02-28T16:34:31;1.20;96.00
21163;DHT22;10739;52.198;20.908;2023-02-28T16:36:58;1.20;96.10
21163;DHT22;10739;52.198;20.908;2023-02-28T16:39:25;1.10;96.40
21163;DHT22;10739;52.198;20.908;2023-02-28T16:41:52;1.10;97.80
21163;DHT22;10739;52.198;20.908;2023-02-28T16:44:28;1.00;98.30
21163;DHT22;10739;52.198;20.908;2023-02-28T16:46:56;0.90;97.90
21163;DHT22;10739;52.198;20.908;2023-02-28T16:49:58;0.90;98.30
21163;DHT22;10739;52.198;20.908;2023-02-28T16:52:24;0.80;99.10
21163;DHT22;10739;52.198;20.908;2023-02-28T16:54:50;0.70;99.50
21163;DHT22;10739;52.198;20.908;2023-02-28T16:57:21;0.60;99.50
21163;DHT22;10739;52.198;20.908;2023-02-28T16:59:50;0.50;99.90
21163;DHT22;10739;52.198;20.908;2023-02-28T17:02:18;0.40;99.90
21163;DHT22;10739;52.198;20.908;2023-02-28T17:04:45;0.40;99.90
21163;DHT22;10739;52.198;20.908;2023-02-28T17:07:14;0.40;99.90
21163;DHT22;10739;52.198;20.908;2023-02-28T17:09:43;0.30;99.90
21163;DHT22;10739;52.198;20.908;2023-02-28T17:12:12;0.30;99.90
21163;DHT22;10739;52.198;20.908;2023-02-28T17:14:40;0.30;99.90
21163;DHT22;10739;52.198;20.908;2023-02-28T17:17:07;0.30;99.90
21163;DHT22;10739;52.198;20.908;2023-02-28T17:19:34;0.30;99.90
21163;DHT22;10739;52.198;20.908;2023-02-28T17:22:02;0.30;99.90
21163;DHT22;10739;52.198;20.908;2023-02-28T17:24:28;0.30;99.90
21163;DHT22;10739;52.198;20.908;2023-02-28T17:26:55;0.30;99.90
21163;DHT22;10739;52.198;20.908;2023-02-28T17:29:21;0.30;99.90
21163;DHT22;10739;52.198;20.908;2023-02-28T17:31:48;0.20;99.90
21163;DHT22;10739;52.198;20.908;2023-02-28T17:34:14;0.20;99.90
21163;DHT22;10739;52.198;20.908;2023-02-28T17:36:46;0.10;99.90
21163;DHT22;10739;52.198;20.908;2023-02-28T17:39:18;0.10;99.90
21163;DHT22;10739;52.198;20.908;2023-02-28T17:41:52;0.10;99.90
21163;DHT22;10739;52.198;20.908;2023-02-28T17:44:21;0.10;99.90
21163;DHT22;10739;52.198;20.908;2023-02-28T17:46:50;0.00;99.90
21163;DHT22;10739;52.198;20.908;2023-02-28T17:49:18;0.00;99.90
21163;DHT22;10739;52.198;20.908;2023-02-28T17:51:45;0.00;99.90
21163;DHT22;10739;52.198;20.908;2023-02-28T17:54:13;-0.10;99.90
21163;DHT22;10739;52.198;20.908;2023-02-28T17:56:40;-0.10;99.90
21163;DHT22;10739;52.198;20.908;2023-02-28T17:59:09;-0.10;99.90
21163;DHT22;10739;52.198;20.908;2023-02-28T18:01:37;-0.10;99.90
21163;DHT22;10739;52.198;20.908;2023-02-28T18:04:04;-0.10;99.90
21163;DHT22;10739;52.198;20.908;2023-02-28T18:06:39;-0.20;99.90
21163;DHT22;10739;52.198;20.908;2023-02-28T18:09:18;-0.20;99.90
21163;DHT22;10739;52.198;20.908;2023-02-28T18:11:48;-0.30;99.90
21163;DHT22;10739;52.198;20.908;2023-02-28T18:14:17;-0.40;99.90
21163;DHT22;10739;52.198;20.908;2023-02-28T18:16:45;-0.40;99.90
21163;DHT22;10739;52.198;20.908;2023-02-28T18:19:12;-0.40;99.90
21163;DHT22;10739;52.198;20.908;2023-02-28T18:21:47;-0.40;99.90
21163;DHT22;10739;52.198;20.908;2023-02-28T18:24:16;-0.40;99.90
21163;DHT22;10739;52.198;20.908;2023-02-28T18:26:43;-0.40;99.90
21163;DHT22;10739;52.198;20.908;2023-02-28T18:29:17;-0.50;99.90
21163;DHT22;10739;52.198;20.908;2023-02-28T18:31:47;-0.50;99.90